sensor_id;sensor_type;location;lat;lon;timestamp;temperature;humidity
2929;DHT22;1474;51.460;7.150;2023-04-21T00:02:24;8.00;99.90
2929;DHT22;1474;51.460;7.150;2023-04-21T00:04:50;8.00;99.90
2929;DHT22;1474;51.460;7.150;2023-04-21T00:07:16;7.90;99.90
2929;DHT22;1474;51.460;7.150;2023-04-21T00:09:44;7.90;99.90
2929;DHT22;1474;51.460;7.150;2023-04-21T00:12:10;7.90;99.90
2929;DHT22;1474;51.460;7.150;2023-04-21T00:14:36;7.90;99.90
2929;DHT22;1474;51.460;7.150;2023-04-21T00:17:01;7.90;99.90
2929;DHT22;1474;51.460;7.150;2023-04-21T00:19:27;7.90;99.90
2929;DHT22;1474;51.460;7.150;2023-04-21T00:21:54;8.00;99.90
2929;DHT22;1474;51.460;7.150;2023-04-21T00:24:23;8.00;99.90
2929;DHT22;1474;51.460;7.150;2023-04-21T00:26:50;8.00;99.90
2929;DHT22;1474;51.460;7.150;2023-04-21T00:29:15;8.00;99.90
2929;DHT22;1474;51.460;7.150;2023-04-21T00:31:41;8.00;99.90
2929;DHT22;1474;51.460;7.150;2023-04-21T00:34:06;8.00;99.90
2929;DHT22;1474;51.460;7.150;2023-04-21T00:36:32;8.10;99.90
2929;DHT22;1474;51.460;7.150;2023-04-21T00:38:58;8.10;99.90
2929;DHT22;1474;51.460;7.150;2023-04-21T00:41:24;8.00;99.90
2929;DHT22;1474;51.460;7.150;2023-04-21T00:44:07;8.00;99.90
2929;DHT22;1474;51.460;7.150;2023-04-21T00:46:33;8.00;99.90
2929;DHT22;1474;51.460;7.150;2023-04-21T00:49:04;8.00;99.90
2929;DHT22;1474;51.460;7.150;2023-04-21T00:51:30;8.00;99.90
2929;DHT22;1474;51.460;7.150;2023-04-21T00:53:57;8.00;99.90
2929;DHT22;1474;51.460;7.150;2023-04-21T00:56:25;8.00;99.90
2929;DHT22;1474;51.460;7.150;2023-04-21T00:58:52;8.00;99.90
2929;DHT22;1474;51.460;7.150;2023-04-21T01:01:19;8.00;99.90
2929;DHT22;1474;51.460;7.150;2023-04-21T01:03:44;8.00;99.90
2929;DHT22;1474;51.460;7.150;2023-04-21T01:06:14;8.00;99.90
2929;DHT22;1474;51.460;7.150;2023-04-21T01:08:41;8.00;99.90
2929;DHT22;1474;51.460;7.150;2023-04-21T01:11:10;8.00;99.90
2929;DHT22;1474;51.460;7.150;2023-04-21T01:13:36;7.90;99.90
2929;DHT22;1474;51.460;7.150;2023-04-21T01:16:02;7.90;99.90
2929;DHT22;1474;51.460;7.150;2023-04-21T01:18:28;7.80;99.90
2929;DHT22;1474;51.460;7.150;2023-04-21T01:20:53;7.80;99.90
2929;DHT22;1474;51.460;7.150;2023-04-21T01:23:19;7.80;99.90
2929;DHT22;1474;51.460;7.150;2023-04-21T01:25:45;7.80;99.90
2929;DHT22;1474;51.460;7.150;2023-04-21T01:28:11;7.80;99.90
2929;DHT22;1474;51.460;7.150;2023-04-21T01:30:37;7.80;99.90
2929;DHT22;1474;51.460;7.150;2023-04-21T01:33:03;7.70;99.90
2929;DHT22;1474;51.460;7.150;2023-04-21T01:35:29;7.70;99.90
2929;DHT22;1474;51.460;7.150;2023-04-21T01:37:55;7.70;99.90
2929;DHT22;1474;51.460;7.150;2023-04-21T01:40:20;7.70;99.90
2929;DHT22;1474;51.460;7.150;2023-04-21T01:42:46;7.70;99.90
2929;DHT22;1474;51.460;7.150;2023-04-21T01:45:12;7.80;99.90
2929;DHT22;1474;51.460;7.150;2023-04-21T01:47:38;7.70;99.90
2929;DHT22;1474;51.460;7.150;2023-04-21T01:50:04;7.70;99.90
2929;DHT22;1474;51.460;7.150;2023-04-21T01:52:29;7.70;99.90
2929;DHT22;1474;51.460;7.150;2023-04-21T01:54:55;7.70;99.90
2929;DHT22;1474;51.460;7.150;2023-04-21T01:57:21;7.70;99.90
2929;DHT22;1474;51.460;7.150;2023-04-21T01:59:46;7.80;99.90
2929;DHT22;1474;51.460;7.150;2023-04-21T02:02:13;7.80;99.90
2929;DHT22;1474;51.460;7.150;2023-04-21T02:04:39;7.80;99.90
2929;DHT22;1474;51.460;7.150;2023-04-21T02:07:05;7.80;99.90
2929;DHT22;1474;51.460;7.150;2023-04-21T02:09:31;7.80;99.90
2929;DHT22;1474;51.460;7.150;2023-04-21T02:11:56;7.80;99.90
2929;DHT22;1474;51.460;7.150;2023-04-21T02:14:23;7.70;99.90
2929;DHT22;1474;51.460;7.150;2023-04-21T02:16:49;7.70;99.90
2929;DHT22;1474;51.460;7.150;2023-04-21T02:19:15;7.70;99.90
2929;DHT22;1474;51.460;7.150;2023-04-21T02:21:40;7.70;99.90
2929;DHT22;1474;51.460;7.150;2023-04-21T02:24:06;7.70;99.90
2929;DHT22;1474;51.460;7.150;2023-04-21T02:26:32;7.70;99.90
2929;DHT22;1474;51.460;7.150;2023-04-21T02:28:57;7.70;99.90
2929;DHT22;1474;51.460;7.150;2023-04-21T02:31:23;7.70;99.90
2929;DHT22;1474;51.460;7.150;2023-04-21T02:33:49;7.70;99.90
2929;DHT22;1474;51.460;7.150;2023-04-21T02:36:14;7.70;99.90
2929;DHT22;1474;51.460;7.150;2023-04-21T02:38:40;7.70;99.90
2929;DHT22;1474;51.460;7.150;2023-04-21T02:41:06;7.80;99.90
2929;DHT22;1474;51.460;7.150;2023-04-21T02:43:31;7.80;99.90
2929;DHT22;1474;51.460;7.150;2023-04-21T02:45:57;7.80;99.90
2929;DHT22;1474;51.460;7.150;2023-04-21T02:48:22;7.90;99.90
2929;DHT22;1474;51.460;7.150;2023-04-21T02:50:49;8.00;99.90
2929;DHT22;1474;51.460;7.150;2023-04-21T02:53:15;8.00;99.90
2929;DHT22;1474;51.460;7.150;2023-04-21T02:55:41;8.10;99.90
2929;DHT22;1474;51.460;7.150;2023-04-21T02:58:07;8.10;99.90
2929;DHT22;1474;51.460;7.150;2023-04-21T03:00:32;8.20;99.90
2929;DHT22;1474;51.460;7.150;2023-04-21T03:02:58;8.20;99.90
2929;DHT22;1474;51.460;7.150;2023-04-21T03:05:24;8.20;99.90
2929;DHT22;1474;51.460;7.150;2023-04-21T03:07:50;8.20;99.90
2929;DHT22;1474;51.460;7.150;2023-04-21T03:10:15;8.20;99.90
2929;DHT22;1474;51.460;7.150;2023-04-21T03:12:41;8.20;99.90
2929;DHT22;1474;51.460;7.150;2023-04-21T03:15:07;8.20;99.90
2929;DHT22;1474;51.460;7.150;2023-04-21T03:17:33;8.20;99.90
2929;DHT22;1474;51.460;7.150;2023-04-21T03:19:58;8.20;99.90
2929;DHT22;1474;51.460;7.150;2023-04-21T03:22:24;8.30;99.90
2929;DHT22;1474;51.460;7.150;2023-04-21T03:24:50;8.30;99.90
2929;DHT22;1474;51.460;7.150;2023-04-21T03:27:16;8.30;99.90
2929;DHT22;1474;51.460;7.150;2023-04-21T03:29:41;8.30;99.90
2929;DHT22;1474;51.460;7.150;2023-04-21T03:32:07;8.30;99.90
2929;DHT22;1474;51.460;7.150;2023-04-21T03:34:32;8.30;99.90
2929;DHT22;1474;51.460;7.150;2023-04-21T03:36:58;8.30;99.90
2929;DHT22;1474;51.460;7.150;2023-04-21T03:39:24;8.20;99.90
2929;DHT22;1474;51.460;7.150;2023-04-21T03:41:49;8.20;99.90
2929;DHT22;1474;51.460;7.150;2023-04-21T03:44:15;8.30;99.90
2929;DHT22;1474;51.460;7.150;2023-04-21T03:46:41;8.20;99.90
2929;DHT22;1474;51.460;7.150;2023-04-21T03:49:06;8.30;99.90
2929;DHT22;1474;51.460;7.150;2023-04-21T03:51:32;8.30;99.90
2929;DHT22;1474;51.460;7.150;2023-04-21T03:53:58;8.30;99.90
2929;DHT22;1474;51.460;7.150;2023-04-21T03:56:46;8.30;99.90
2929;DHT22;1474;51.460;7.150;2023-04-21T03:59:15;8.20;99.90
2929;DHT22;1474;51.460;7.150;2023-04-21T04:01:41;8.30;99.90
2929;DHT22;1474;51.460;7.150;2023-04-21T04:04:07;8.20;99.90
2929;DHT22;1474;51.460;7.150;2023-04-21T04:06:33;8.20;99.90
2929;DHT22;1474;51.460;7.150;2023-04-21T04:09:00;8.20;99.90
2929;DHT22;1474;51.460;7.150;2023-04-21T04:11:29;8.20;99.90
2929;DHT22;1474;51.460;7.150;2023-04-21T04:13:55;8.20;99.90
2929;DHT22;1474;51.460;7.150;2023-04-21T04:16:20;8.20;99.90
2929;DHT22;1474;51.460;7.150;2023-04-21T04:18:46;8.20;99.90
2929;DHT22;1474;51.460;7.150;2023-04-21T04:21:12;8.20;99.90
2929;DHT22;1474;51.460;7.150;2023-04-21T04:23:37;8.30;99.90
2929;DHT22;1474;51.460;7.150;2023-04-21T04:26:03;8.20;99.90
2929;DHT22;1474;51.460;7.150;2023-04-21T04:28:30;8.20;99.90
2929;DHT22;1474;51.460;7.150;2023-04-21T04:30:56;8.20;99.90
2929;DHT22;1474;51.460;7.150;2023-04-21T04:33:21;8.20;99.90
2929;DHT22;1474;51.460;7.150;2023-04-21T04:35:47;8.10;99.90
2929;DHT22;1474;51.460;7.150;2023-04-21T04:38:13;8.10;99.90
2929;DHT22;1474;51.460;7.150;2023-04-21T04:40:42;8.20;99.90
2929;DHT22;1474;51.460;7.150;2023-04-21T04:43:08;8.10;99.90
2929;DHT22;1474;51.460;7.150;2023-04-21T04:45:35;8.20;99.90
2929;DHT22;1474;51.460;7.150;2023-04-21T04:48:02;8.20;99.90
2929;DHT22;1474;51.460;7.150;2023-04-21T04:50:28;8.20;99.90
2929;DHT22;1474;51.460;7.150;2023-04-21T04:52:54;8.30;99.90
2929;DHT22;1474;51.460;7.150;2023-04-21T04:55:20;8.30;99.90
2929;DHT22;1474;51.460;7.150;2023-04-21T04:57:46;8.30;99.90
2929;DHT22;1474;51.460;7.150;2023-04-21T05:00:12;8.40;99.90
2929;DHT22;1474;51.460;7.150;2023-04-21T05:02:39;8.40;99.90
2929;DHT22;1474;51.460;7.150;2023-04-21T05:05:05;8.40;99.90
2929;DHT22;1474;51.460;7.150;2023-04-21T05:07:32;8.30;99.90
2929;DHT22;1474;51.460;7.150;2023-04-21T05:09:58;8.30;99.90
2929;DHT22;1474;51.460;7.150;2023-04-21T05:12:23;8.30;99.90
2929;DHT22;1474;51.460;7.150;2023-04-21T05:14:49;8.20;99.90
2929;DHT22;1474;51.460;7.150;2023-04-21T05:17:14;8.20;99.90
2929;DHT22;1474;51.460;7.150;2023-04-21T05:19:40;8.20;99.90
2929;DHT22;1474;51.460;7.150;2023-04-21T05:22:06;8.20;99.90
2929;DHT22;1474;51.460;7.150;2023-04-21T05:24:32;8.20;99.90
2929;DHT22;1474;51.460;7.150;2023-04-21T05:26:58;8.30;99.90
2929;DHT22;1474;51.460;7.150;2023-04-21T05:29:24;8.30;99.90
2929;DHT22;1474;51.460;7.150;2023-04-21T05:31:50;8.40;99.90
2929;DHT22;1474;51.460;7.150;2023-04-21T05:34:15;8.40;99.90
2929;DHT22;1474;51.460;7.150;2023-04-21T05:36:41;8.40;99.90
2929;DHT22;1474;51.460;7.150;2023-04-21T05:39:07;8.40;99.90
2929;DHT22;1474;51.460;7.150;2023-04-21T05:41:33;8.50;99.90
2929;DHT22;1474;51.460;7.150;2023-04-21T05:43:59;8.50;99.90
2929;DHT22;1474;51.460;7.150;2023-04-21T05:46:24;8.60;99.90
2929;DHT22;1474;51.460;7.150;2023-04-21T05:48:50;8.70;99.90
2929;DHT22;1474;51.460;7.150;2023-04-21T05:51:15;8.80;99.90
2929;DHT22;1474;51.460;7.150;2023-04-21T05:53:42;8.90;99.90
2929;DHT22;1474;51.460;7.150;2023-04-21T05:56:08;8.90;99.90
2929;DHT22;1474;51.460;7.150;2023-04-21T05:58:35;8.90;99.90
2929;DHT22;1474;51.460;7.150;2023-04-21T06:01:01;8.90;99.90
2929;DHT22;1474;51.460;7.150;2023-04-21T06:03:26;8.90;99.90
2929;DHT22;1474;51.460;7.150;2023-04-21T06:05:54;8.90;99.90
2929;DHT22;1474;51.460;7.150;2023-04-21T06:08:21;8.90;99.90
2929;DHT22;1474;51.460;7.150;2023-04-21T06:10:46;8.90;99.90
2929;DHT22;1474;51.460;7.150;2023-04-21T06:13:12;8.90;99.90
2929;DHT22;1474;51.460;7.150;2023-04-21T06:15:38;9.00;99.90
2929;DHT22;1474;51.460;7.150;2023-04-21T06:18:03;9.00;99.90
2929;DHT22;1474;51.460;7.150;2023-04-21T06:20:29;9.10;99.90
2929;DHT22;1474;51.460;7.150;2023-04-21T06:22:55;9.20;99.90
2929;DHT22;1474;51.460;7.150;2023-04-21T06:25:20;9.30;99.90
2929;DHT22;1474;51.460;7.150;2023-04-21T06:27:46;9.50;99.90
2929;DHT22;1474;51.460;7.150;2023-04-21T06:30:13;9.60;99.90
2929;DHT22;1474;51.460;7.150;2023-04-21T06:32:39;9.70;99.90
2929;DHT22;1474;51.460;7.150;2023-04-21T06:35:05;9.70;99.90
2929;DHT22;1474;51.460;7.150;2023-04-21T06:37:30;9.70;99.90
2929;DHT22;1474;51.460;7.150;2023-04-21T06:39:56;9.60;99.90
2929;DHT22;1474;51.460;7.150;2023-04-21T06:42:22;9.60;99.90
2929;DHT22;1474;51.460;7.150;2023-04-21T06:44:47;9.50;99.90
2929;DHT22;1474;51.460;7.150;2023-04-21T06:47:13;9.40;99.90
2929;DHT22;1474;51.460;7.150;2023-04-21T06:49:41;9.40;99.90
2929;DHT22;1474;51.460;7.150;2023-04-21T06:52:06;9.50;99.90
2929;DHT22;1474;51.460;7.150;2023-04-21T06:54:32;9.50;99.90
2929;DHT22;1474;51.460;7.150;2023-04-21T06:56:58;9.50;99.90
2929;DHT22;1474;51.460;7.150;2023-04-21T06:59:23;9.60;99.90
2929;DHT22;1474;51.460;7.150;2023-04-21T07:01:49;9.60;99.90
2929;DHT22;1474;51.460;7.150;2023-04-21T07:04:17;9.60;99.90
2929;DHT22;1474;51.460;7.150;2023-04-21T07:06:43;9.70;99.90
2929;DHT22;1474;51.460;7.150;2023-04-21T07:09:08;9.80;99.90
2929;DHT22;1474;51.460;7.150;2023-04-21T07:11:34;9.90;99.90
2929;DHT22;1474;51.460;7.150;2023-04-21T07:13:59;10.00;99.90
2929;DHT22;1474;51.460;7.150;2023-04-21T07:16:27;10.10;99.90
2929;DHT22;1474;51.460;7.150;2023-04-21T07:18:52;10.10;99.90
2929;DHT22;1474;51.460;7.150;2023-04-21T07:21:18;10.10;99.90
2929;DHT22;1474;51.460;7.150;2023-04-21T07:23:44;10.20;99.90
2929;DHT22;1474;51.460;7.150;2023-04-21T07:26:09;10.20;99.90
2929;DHT22;1474;51.460;7.150;2023-04-21T07:28:37;10.30;99.90
2929;DHT22;1474;51.460;7.150;2023-04-21T07:31:03;10.30;99.90
2929;DHT22;1474;51.460;7.150;2023-04-21T07:33:29;10.40;99.90
2929;DHT22;1474;51.460;7.150;2023-04-21T07:35:54;10.50;99.90
2929;DHT22;1474;51.460;7.150;2023-04-21T07:38:20;10.60;99.90
2929;DHT22;1474;51.460;7.150;2023-04-21T07:40:46;10.60;99.90
2929;DHT22;1474;51.460;7.150;2023-04-21T07:43:11;10.70;99.90
2929;DHT22;1474;51.460;7.150;2023-04-21T07:45:37;10.70;99.90
2929;DHT22;1474;51.460;7.150;2023-04-21T07:48:03;10.70;99.90
2929;DHT22;1474;51.460;7.150;2023-04-21T07:50:30;10.80;99.90
2929;DHT22;1474;51.460;7.150;2023-04-21T07:52:56;10.90;99.90
2929;DHT22;1474;51.460;7.150;2023-04-21T07:55:21;11.00;99.90
2929;DHT22;1474;51.460;7.150;2023-04-21T07:57:47;11.10;99.90
2929;DHT22;1474;51.460;7.150;2023-04-21T08:00:13;11.10;99.90
2929;DHT22;1474;51.460;7.150;2023-04-21T08:02:39;11.10;99.90
2929;DHT22;1474;51.460;7.150;2023-04-21T08:05:05;11.10;99.90
2929;DHT22;1474;51.460;7.150;2023-04-21T08:07:31;11.10;99.90
2929;DHT22;1474;51.460;7.150;2023-04-21T08:09:57;11.10;99.90
2929;DHT22;1474;51.460;7.150;2023-04-21T08:12:22;11.20;99.90
2929;DHT22;1474;51.460;7.150;2023-04-21T08:14:48;11.10;99.90
2929;DHT22;1474;51.460;7.150;2023-04-21T08:17:14;11.10;99.90
2929;DHT22;1474;51.460;7.150;2023-04-21T08:19:40;11.20;99.90
2929;DHT22;1474;51.460;7.150;2023-04-21T08:22:05;11.20;99.90
2929;DHT22;1474;51.460;7.150;2023-04-21T08:24:31;11.20;99.90
2929;DHT22;1474;51.460;7.150;2023-04-21T08:26:57;11.30;99.90
2929;DHT22;1474;51.460;7.150;2023-04-21T08:29:22;11.30;99.90
2929;DHT22;1474;51.460;7.150;2023-04-21T08:31:48;11.40;99.90
2929;DHT22;1474;51.460;7.150;2023-04-21T08:34:14;11.50;99.90
2929;DHT22;1474;51.460;7.150;2023-04-21T08:36:39;11.50;99.90
2929;DHT22;1474;51.460;7.150;2023-04-21T08:39:07;11.60;99.90
2929;DHT22;1474;51.460;7.150;2023-04-21T08:41:33;11.60;99.90
2929;DHT22;1474;51.460;7.150;2023-04-21T08:43:58;11.60;99.90
2929;DHT22;1474;51.460;7.150;2023-04-21T08:46:26;11.50;99.90
2929;DHT22;1474;51.460;7.150;2023-04-21T08:48:52;11.60;99.90
2929;DHT22;1474;51.460;7.150;2023-04-21T08:51:22;11.60;99.90
2929;DHT22;1474;51.460;7.150;2023-04-21T08:53:48;11.60;99.90
2929;DHT22;1474;51.460;7.150;2023-04-21T08:56:14;11.70;99.90
2929;DHT22;1474;51.460;7.150;2023-04-21T08:58:40;11.70;99.90
2929;DHT22;1474;51.460;7.150;2023-04-21T09:01:06;11.70;99.90
2929;DHT22;1474;51.460;7.150;2023-04-21T09:03:38;11.80;99.90
2929;DHT22;1474;51.460;7.150;2023-04-21T09:06:06;11.90;99.90
2929;DHT22;1474;51.460;7.150;2023-04-21T09:08:35;11.70;99.90
2929;DHT22;1474;51.460;7.150;2023-04-21T09:11:01;11.80;99.90
2929;DHT22;1474;51.460;7.150;2023-04-21T09:13:36;11.90;99.90
2929;DHT22;1474;51.460;7.150;2023-04-21T09:16:04;11.90;99.90
2929;DHT22;1474;51.460;7.150;2023-04-21T09:18:31;11.90;99.90
2929;DHT22;1474;51.460;7.150;2023-04-21T09:21:21;11.90;99.90
2929;DHT22;1474;51.460;7.150;2023-04-21T09:23:52;11.90;99.90
2929;DHT22;1474;51.460;7.150;2023-04-21T09:26:19;12.00;99.90
2929;DHT22;1474;51.460;7.150;2023-04-21T09:28:48;12.00;99.90
2929;DHT22;1474;51.460;7.150;2023-04-21T09:31:20;12.00;99.90
2929;DHT22;1474;51.460;7.150;2023-04-21T09:33:47;12.00;99.90
2929;DHT22;1474;51.460;7.150;2023-04-21T09:36:24;12.10;99.90
2929;DHT22;1474;51.460;7.150;2023-04-21T09:39:01;12.20;99.90
2929;DHT22;1474;51.460;7.150;2023-04-21T09:41:27;12.20;99.90
2929;DHT22;1474;51.460;7.150;2023-04-21T09:43:52;12.20;99.90
2929;DHT22;1474;51.460;7.150;2023-04-21T09:46:19;12.20;99.90
2929;DHT22;1474;51.460;7.150;2023-04-21T09:48:46;12.30;99.90
2929;DHT22;1474;51.460;7.150;2023-04-21T09:51:16;12.20;99.90
2929;DHT22;1474;51.460;7.150;2023-04-21T09:53:44;12.30;99.90
2929;DHT22;1474;51.460;7.150;2023-04-21T09:56:11;12.30;99.90
2929;DHT22;1474;51.460;7.150;2023-04-21T09:58:46;12.40;99.90
2929;DHT22;1474;51.460;7.150;2023-04-21T10:01:14;12.40;99.90
2929;DHT22;1474;51.460;7.150;2023-04-21T10:03:42;12.40;99.90
2929;DHT22;1474;51.460;7.150;2023-04-21T10:06:09;12.50;99.90
2929;DHT22;1474;51.460;7.150;2023-04-21T10:08:36;12.60;99.90
2929;DHT22;1474;51.460;7.150;2023-04-21T10:11:02;12.70;99.90
2929;DHT22;1474;51.460;7.150;2023-04-21T10:13:29;12.70;99.90
2929;DHT22;1474;51.460;7.150;2023-04-21T10:16:21;12.70;99.90
2929;DHT22;1474;51.460;7.150;2023-04-21T10:18:47;12.60;99.90
2929;DHT22;1474;51.460;7.150;2023-04-21T10:21:20;12.40;99.90
2929;DHT22;1474;51.460;7.150;2023-04-21T10:23:52;12.50;99.90
2929;DHT22;1474;51.460;7.150;2023-04-21T10:26:24;12.50;99.90
2929;DHT22;1474;51.460;7.150;2023-04-21T10:31:30;12.70;99.90
2929;DHT22;1474;51.460;7.150;2023-04-21T10:39:35;12.80;99.90
2929;DHT22;1474;51.460;7.150;2023-04-21T10:47:28;13.00;99.90
2929;DHT22;1474;51.460;7.150;2023-04-21T10:49:58;13.00;99.90
2929;DHT22;1474;51.460;7.150;2023-04-21T10:52:34;12.90;99.90
2929;DHT22;1474;51.460;7.150;2023-04-21T10:57:31;12.90;99.90
2929;DHT22;1474;51.460;7.150;2023-04-21T10:59:57;12.90;99.90
2929;DHT22;1474;51.460;7.150;2023-04-21T11:02:23;12.80;99.90
2929;DHT22;1474;51.460;7.150;2023-04-21T11:04:52;12.80;99.90
2929;DHT22;1474;51.460;7.150;2023-04-21T11:07:22;12.80;99.90
2929;DHT22;1474;51.460;7.150;2023-04-21T11:10:07;12.80;99.90
2929;DHT22;1474;51.460;7.150;2023-04-21T11:12:39;12.90;99.90
2929;DHT22;1474;51.460;7.150;2023-04-21T11:15:10;13.00;99.90
2929;DHT22;1474;51.460;7.150;2023-04-21T11:17:36;13.30;99.90
2929;DHT22;1474;51.460;7.150;2023-04-21T11:20:08;13.40;99.90
2929;DHT22;1474;51.460;7.150;2023-04-21T11:22:36;13.60;99.90
2929;DHT22;1474;51.460;7.150;2023-04-21T11:25:01;13.90;99.90
2929;DHT22;1474;51.460;7.150;2023-04-21T11:27:28;14.10;99.90
2929;DHT22;1474;51.460;7.150;2023-04-21T11:29:55;14.30;99.90
2929;DHT22;1474;51.460;7.150;2023-04-21T11:32:22;14.60;99.90
2929;DHT22;1474;51.460;7.150;2023-04-21T11:34:48;14.80;99.90
2929;DHT22;1474;51.460;7.150;2023-04-21T11:37:25;14.80;99.90
2929;DHT22;1474;51.460;7.150;2023-04-21T11:39:58;15.00;99.90
2929;DHT22;1474;51.460;7.150;2023-04-21T11:42:25;15.20;99.90
2929;DHT22;1474;51.460;7.150;2023-04-21T11:44:53;15.20;99.90
2929;DHT22;1474;51.460;7.150;2023-04-21T11:47:24;15.40;99.90
2929;DHT22;1474;51.460;7.150;2023-04-21T11:49:53;15.40;99.90
2929;DHT22;1474;51.460;7.150;2023-04-21T11:54:54;15.30;99.90
2929;DHT22;1474;51.460;7.150;2023-04-21T11:57:21;15.30;99.90
2929;DHT22;1474;51.460;7.150;2023-04-21T11:59:47;15.20;99.90
2929;DHT22;1474;51.460;7.150;2023-04-21T12:02:24;15.10;99.90
2929;DHT22;1474;51.460;7.150;2023-04-21T12:07:24;14.80;99.90
2929;DHT22;1474;51.460;7.150;2023-04-21T12:09:52;14.70;99.90
2929;DHT22;1474;51.460;7.150;2023-04-21T12:12:18;14.70;99.90
2929;DHT22;1474;51.460;7.150;2023-04-21T12:14:44;14.50;99.90
2929;DHT22;1474;51.460;7.150;2023-04-21T12:17:10;14.50;99.90
2929;DHT22;1474;51.460;7.150;2023-04-21T12:19:38;14.40;99.90
2929;DHT22;1474;51.460;7.150;2023-04-21T12:22:12;14.40;99.90
2929;DHT22;1474;51.460;7.150;2023-04-21T12:24:38;14.40;99.90
2929;DHT22;1474;51.460;7.150;2023-04-21T12:27:05;14.30;99.90
2929;DHT22;1474;51.460;7.150;2023-04-21T12:29:31;14.30;99.90
2929;DHT22;1474;51.460;7.150;2023-04-21T12:32:00;14.50;99.90
2929;DHT22;1474;51.460;7.150;2023-04-21T12:34:26;14.70;99.90
2929;DHT22;1474;51.460;7.150;2023-04-21T12:36:51;14.90;99.90
2929;DHT22;1474;51.460;7.150;2023-04-21T12:39:17;15.20;99.90
2929;DHT22;1474;51.460;7.150;2023-04-21T12:41:44;15.40;99.90
2929;DHT22;1474;51.460;7.150;2023-04-21T12:44:12;15.60;99.90
2929;DHT22;1474;51.460;7.150;2023-04-21T12:46:37;15.90;99.90
2929;DHT22;1474;51.460;7.150;2023-04-21T12:49:03;16.10;99.90
2929;DHT22;1474;51.460;7.150;2023-04-21T12:51:32;16.20;99.90
2929;DHT22;1474;51.460;7.150;2023-04-21T12:53:57;16.10;99.90
2929;DHT22;1474;51.460;7.150;2023-04-21T12:56:23;16.10;99.90
2929;DHT22;1474;51.460;7.150;2023-04-21T12:58:49;16.00;99.90
2929;DHT22;1474;51.460;7.150;2023-04-21T13:01:14;16.00;99.90
2929;DHT22;1474;51.460;7.150;2023-04-21T13:03:41;16.10;99.90
2929;DHT22;1474;51.460;7.150;2023-04-21T13:06:07;16.10;99.90
2929;DHT22;1474;51.460;7.150;2023-04-21T13:08:33;16.20;99.90
2929;DHT22;1474;51.460;7.150;2023-04-21T13:10:59;16.20;99.90
2929;DHT22;1474;51.460;7.150;2023-04-21T13:13:25;16.20;99.90
2929;DHT22;1474;51.460;7.150;2023-04-21T13:15:50;16.10;99.90
2929;DHT22;1474;51.460;7.150;2023-04-21T13:18:16;16.10;99.90
2929;DHT22;1474;51.460;7.150;2023-04-21T13:20:42;16.00;99.90
2929;DHT22;1474;51.460;7.150;2023-04-21T13:23:07;16.10;99.90
2929;DHT22;1474;51.460;7.150;2023-04-21T13:25:33;15.90;99.90
2929;DHT22;1474;51.460;7.150;2023-04-21T13:27:59;15.90;99.90
2929;DHT22;1474;51.460;7.150;2023-04-21T13:30:25;16.00;99.90
2929;DHT22;1474;51.460;7.150;2023-04-21T13:32:51;16.00;99.90
2929;DHT22;1474;51.460;7.150;2023-04-21T13:35:16;16.20;99.90
2929;DHT22;1474;51.460;7.150;2023-04-21T13:37:42;16.40;99.90
2929;DHT22;1474;51.460;7.150;2023-04-21T13:40:08;16.50;99.90
2929;DHT22;1474;51.460;7.150;2023-04-21T13:42:35;16.70;99.90
2929;DHT22;1474;51.460;7.150;2023-04-21T13:45:01;16.80;99.90
2929;DHT22;1474;51.460;7.150;2023-04-21T13:47:31;16.80;99.90
2929;DHT22;1474;51.460;7.150;2023-04-21T13:49:57;16.80;99.90
2929;DHT22;1474;51.460;7.150;2023-04-21T13:52:23;16.70;99.90
2929;DHT22;1474;51.460;7.150;2023-04-21T13:54:50;16.70;99.90
2929;DHT22;1474;51.460;7.150;2023-04-21T13:57:16;16.60;99.90
2929;DHT22;1474;51.460;7.150;2023-04-21T13:59:42;16.70;99.90
2929;DHT22;1474;51.460;7.150;2023-04-21T14:02:07;16.70;99.90
2929;DHT22;1474;51.460;7.150;2023-04-21T14:04:33;16.80;99.90
2929;DHT22;1474;51.460;7.150;2023-04-21T14:07:00;17.10;99.90
2929;DHT22;1474;51.460;7.150;2023-04-21T14:09:26;17.20;99.90
2929;DHT22;1474;51.460;7.150;2023-04-21T14:11:52;17.30;99.90
2929;DHT22;1474;51.460;7.150;2023-04-21T14:14:18;17.70;99.90
2929;DHT22;1474;51.460;7.150;2023-04-21T14:16:43;18.00;99.90
2929;DHT22;1474;51.460;7.150;2023-04-21T14:19:13;17.80;99.90
2929;DHT22;1474;51.460;7.150;2023-04-21T14:21:40;17.70;99.90
2929;DHT22;1474;51.460;7.150;2023-04-21T14:24:05;17.70;99.90
2929;DHT22;1474;51.460;7.150;2023-04-21T14:26:31;17.70;99.90
2929;DHT22;1474;51.460;7.150;2023-04-21T14:28:57;17.70;99.90
2929;DHT22;1474;51.460;7.150;2023-04-21T14:31:24;17.70;99.90
2929;DHT22;1474;51.460;7.150;2023-04-21T14:36:16;17.90;99.90
2929;DHT22;1474;51.460;7.150;2023-04-21T14:38:41;18.10;99.90
2929;DHT22;1474;51.460;7.150;2023-04-21T14:41:07;18.20;99.90
2929;DHT22;1474;51.460;7.150;2023-04-21T14:43:33;18.30;99.90
2929;DHT22;1474;51.460;7.150;2023-04-21T14:45:59;18.60;99.90
2929;DHT22;1474;51.460;7.150;2023-04-21T14:48:25;18.80;99.90
2929;DHT22;1474;51.460;7.150;2023-04-21T14:50:51;18.80;99.90
2929;DHT22;1474;51.460;7.150;2023-04-21T14:53:17;18.70;99.90
2929;DHT22;1474;51.460;7.150;2023-04-21T14:55:43;18.50;99.90
2929;DHT22;1474;51.460;7.150;2023-04-21T14:58:08;18.50;99.90
2929;DHT22;1474;51.460;7.150;2023-04-21T15:00:34;18.60;99.90
2929;DHT22;1474;51.460;7.150;2023-04-21T15:03:01;18.60;99.90
2929;DHT22;1474;51.460;7.150;2023-04-21T15:05:27;18.60;99.90
2929;DHT22;1474;51.460;7.150;2023-04-21T15:07:53;18.80;99.90
2929;DHT22;1474;51.460;7.150;2023-04-21T15:10:19;18.90;99.90
2929;DHT22;1474;51.460;7.150;2023-04-21T15:12:44;18.70;99.90
2929;DHT22;1474;51.460;7.150;2023-04-21T15:15:10;18.60;99.90
2929;DHT22;1474;51.460;7.150;2023-04-21T15:17:36;18.60;99.90
2929;DHT22;1474;51.460;7.150;2023-04-21T15:20:02;18.50;99.90
2929;DHT22;1474;51.460;7.150;2023-04-21T15:22:28;18.40;99.90
2929;DHT22;1474;51.460;7.150;2023-04-21T15:24:54;18.40;99.90
2929;DHT22;1474;51.460;7.150;2023-04-21T15:27:19;18.40;99.90
2929;DHT22;1474;51.460;7.150;2023-04-21T15:29:45;18.40;99.90
2929;DHT22;1474;51.460;7.150;2023-04-21T15:32:11;18.40;99.90
2929;DHT22;1474;51.460;7.150;2023-04-21T15:34:37;18.60;99.90
2929;DHT22;1474;51.460;7.150;2023-04-21T15:37:03;18.70;99.90
2929;DHT22;1474;51.460;7.150;2023-04-21T15:39:28;18.70;99.90
2929;DHT22;1474;51.460;7.150;2023-04-21T15:41:54;18.60;99.90
2929;DHT22;1474;51.460;7.150;2023-04-21T15:44:20;18.50;99.90
2929;DHT22;1474;51.460;7.150;2023-04-21T15:46:46;18.40;99.90
2929;DHT22;1474;51.460;7.150;2023-04-21T15:49:12;18.40;99.90
2929;DHT22;1474;51.460;7.150;2023-04-21T15:51:39;18.40;99.90
2929;DHT22;1474;51.460;7.150;2023-04-21T15:54:05;18.40;99.90
2929;DHT22;1474;51.460;7.150;2023-04-21T15:56:31;18.50;99.90
2929;DHT22;1474;51.460;7.150;2023-04-21T15:58:56;18.50;99.90
2929;DHT22;1474;51.460;7.150;2023-04-21T16:01:22;18.50;99.90
2929;DHT22;1474;51.460;7.150;2023-04-21T16:03:48;18.40;99.90
2929;DHT22;1474;51.460;7.150;2023-04-21T16:06:14;18.40;99.90
2929;DHT22;1474;51.460;7.150;2023-04-21T16:08:40;18.30;99.90
2929;DHT22;1474;51.460;7.150;2023-04-21T16:11:06;18.30;99.90
2929;DHT22;1474;51.460;7.150;2023-04-21T16:13:32;18.20;99.90
2929;DHT22;1474;51.460;7.150;2023-04-21T16:15:58;18.20;99.90
2929;DHT22;1474;51.460;7.150;2023-04-21T16:18:24;18.30;99.90
2929;DHT22;1474;51.460;7.150;2023-04-21T16:20:49;18.40;99.90
2929;DHT22;1474;51.460;7.150;2023-04-21T16:23:15;18.50;99.90
2929;DHT22;1474;51.460;7.150;2023-04-21T16:25:41;18.50;99.90
2929;DHT22;1474;51.460;7.150;2023-04-21T16:28:07;18.50;99.90
2929;DHT22;1474;51.460;7.150;2023-04-21T16:30:36;18.50;99.90